Time;durP1;ratioP1;P1;durP2;ratioP2;P2;SDS_P1;SDS_P2;PMS_P1;PMS_P2;Temp;Humidity;BMP_temperature;BMP_pressure;BME280_temperature;BME280_humidity;BME280_pressure;Samples;Min_cycle;Max_cycle;Signal;HPM_P1;HPM_P2
2023/07/13 00:00:18;;;;;;;8.60;3.60;;;;;;;;;;5034552;28;20129;-77
2023/07/13 00:02:44;;;;;;;12.18;3.63;;;;;;;;;;5034881;28;20041;-78
2023/07/13 00:05:11;;;;;;;10.20;3.92;;;;;;;;;;5034288;28;20487;-78
2023/07/13 00:07:37;;;;;;;8.18;3.72;;;;;;;;;;5034896;28;20053;-78
2023/07/13 00:10:06;;;;;;;9.00;2.90;;;;;;;;;;5035903;28;20049;-78
2023/07/13 00:12:34;;;;;;;9.85;3.42;;;;;;;;;;5038383;28;20132;-78
2023/07/13 00:15:01;;;;;;;8.48;3.10;;;;;;;;;;5038465;28;20049;-78
2023/07/13 00:17:28;;;;;;;6.13;2.78;;;;;;;;;;5036850;28;20133;-77
2023/07/13 00:19:55;;;;;;;6.10;3.00;;;;;;;;;;5034642;28;20116;-78
2023/07/13 00:22:21;;;;;;;10.68;3.53;;;;;;;;;;5034292;28;20049;-77
2023/07/13 00:24:48;;;;;;;9.35;3.00;;;;;;;;;;5034341;28;20492;-77
2023/07/13 00:27:14;;;;;;;11.98;3.00;;;;;;;;;;5033748;28;20041;-77
2023/07/13 00:29:40;;;;;;;6.35;2.80;;;;;;;;;;5034111;28;20045;-77
2023/07/13 00:32:09;;;;;;;9.52;3.17;;;;;;;;;;5033896;28;20050;-77
2023/07/13 00:34:35;;;;;;;7.22;2.88;;;;;;;;;;5033895;28;20118;-79
2023/07/13 00:37:01;;;;;;;8.70;3.20;;;;;;;;;;5033674;28;20180;-79
2023/07/13 00:39:27;;;;;;;9.27;3.05;;;;;;;;;;5033986;28;20041;-78
2023/07/13 00:41:54;;;;;;;7.03;2.95;;;;;;;;;;5033424;28;20046;-77
2023/07/13 00:44:23;;;;;;;7.63;2.67;;;;;;;;;;5033696;28;20116;-77
2023/07/13 00:46:49;;;;;;;8.60;2.83;;;;;;;;;;5033812;28;20128;-77
2023/07/13 00:49:18;;;;;;;5.40;2.80;;;;;;;;;;5033842;28;20049;-77
2023/07/13 00:51:46;;;;;;;6.72;2.67;;;;;;;;;;5033326;28;20037;-77
2023/07/13 00:54:15;;;;;;;8.02;2.92;;;;;;;;;;5034155;28;20055;-78
2023/07/13 00:56:43;;;;;;;5.72;2.40;;;;;;;;;;5033052;28;20507;-77
2023/07/13 00:59:11;;;;;;;7.22;2.47;;;;;;;;;;5033311;28;20484;-77
2023/07/13 01:01:37;;;;;;;6.18;2.35;;;;;;;;;;5033449;28;20081;-77
2023/07/13 01:04:07;;;;;;;5.82;2.50;;;;;;;;;;5032368;28;20042;-78
2023/07/13 01:06:34;;;;;;;4.60;2.40;;;;;;;;;;5032736;28;20555;-78
2023/07/13 01:09:01;;;;;;;4.72;2.33;;;;;;;;;;5032602;28;20049;-77
2023/07/13 01:11:27;;;;;;;4.72;2.10;;;;;;;;;;5033261;28;20487;-77
2023/07/13 01:13:54;;;;;;;5.13;2.15;;;;;;;;;;5033944;28;20041;-78
2023/07/13 01:16:26;;;;;;;7.95;2.63;;;;;;;;;;5033191;28;20089;-77
2023/07/13 01:18:52;;;;;;;6.00;2.40;;;;;;;;;;5033838;28;20049;-78
2023/07/13 01:21:18;;;;;;;3.30;1.67;;;;;;;;;;5033699;28;20119;-77
2023/07/13 01:23:44;;;;;;;3.70;2.00;;;;;;;;;;5033377;28;20049;-77
2023/07/13 01:26:11;;;;;;;3.33;1.98;;;;;;;;;;5033417;28;20088;-77
2023/07/13 01:28:38;;;;;;;4.95;2.03;;;;;;;;;;5033175;28;20056;-79
2023/07/13 01:31:05;;;;;;;10.38;2.25;;;;;;;;;;5033317;28;20144;-77
2023/07/13 01:33:31;;;;;;;3.88;1.65;;;;;;;;;;5032127;28;20426;-77
2023/07/13 01:35:57;;;;;;;5.22;2.10;;;;;;;;;;5033360;28;20045;-77
2023/07/13 01:38:24;;;;;;;3.33;1.80;;;;;;;;;;5031870;28;20045;-78
2023/07/13 01:40:50;;;;;;;2.13;1.48;;;;;;;;;;5033125;28;20100;-77
2023/07/13 01:43:17;;;;;;;5.95;1.83;;;;;;;;;;5033316;28;20425;-77
2023/07/13 01:45:43;;;;;;;5.50;1.60;;;;;;;;;;5033461;28;20099;-77
2023/07/13 01:48:10;;;;;;;4.15;1.50;;;;;;;;;;5033544;28;20041;-77
2023/07/13 01:50:36;;;;;;;4.32;1.70;;;;;;;;;;5032739;28;20487;-77
2023/07/13 01:53:03;;;;;;;3.78;1.50;;;;;;;;;;5033226;28;20107;-78
2023/07/13 01:55:30;;;;;;;4.85;1.80;;;;;;;;;;5033164;28;20360;-78
2023/07/13 01:57:56;;;;;;;3.05;1.58;;;;;;;;;;5031981;28;20076;-79
2023/07/13 02:00:22;;;;;;;5.85;1.90;;;;;;;;;;5033471;28;20046;-79
2023/07/13 02:02:49;;;;;;;3.65;1.70;;;;;;;;;;5033367;28;20080;-78
2023/07/13 02:05:15;;;;;;;4.50;1.80;;;;;;;;;;5031808;28;20050;-79
2023/07/13 02:07:41;;;;;;;5.20;1.70;;;;;;;;;;5034015;28;20119;-79
2023/07/13 02:10:08;;;;;;;6.40;2.13;;;;;;;;;;5033382;28;20060;-79
2023/07/13 02:12:35;;;;;;;5.28;2.00;;;;;;;;;;5033332;28;20041;-77
2023/07/13 02:15:01;;;;;;;2.70;1.65;;;;;;;;;;5032987;28;20096;-79
2023/07/13 02:17:27;;;;;;;7.03;2.15;;;;;;;;;;5033298;28;20503;-78
2023/07/13 02:19:54;;;;;;;4.90;1.90;;;;;;;;;;5036899;28;20084;-77
2023/07/13 02:22:20;;;;;;;6.05;2.38;;;;;;;;;;5037035;28;20041;-77
2023/07/13 02:24:46;;;;;;;3.17;1.80;;;;;;;;;;5037169;28;20038;-77
2023/07/13 02:27:12;;;;;;;7.32;2.47;;;;;;;;;;5036909;28;20136;-77
2023/07/13 02:29:38;;;;;;;4.15;1.80;;;;;;;;;;5037330;28;20045;-77
2023/07/13 02:32:05;;;;;;;5.13;2.20;;;;;;;;;;5036619;28;20044;-78
2023/07/13 02:34:31;;;;;;;4.05;2.25;;;;;;;;;;5037431;28;20045;-78
2023/07/13 02:36:57;;;;;;;4.85;1.90;;;;;;;;;;5036856;28;20051;-78
2023/07/13 02:39:23;;;;;;;4.25;2.00;;;;;;;;;;5035054;28;20049;-78
2023/07/13 02:41:49;;;;;;;5.35;1.88;;;;;;;;;;5034594;28;20056;-79
2023/07/13 02:44:16;;;;;;;4.88;2.00;;;;;;;;;;5035017;28;20477;-78
2023/07/13 02:46:42;;;;;;;3.08;1.98;;;;;;;;;;5035887;28;20046;-78
2023/07/13 02:49:08;;;;;;;6.00;2.25;;;;;;;;;;5036504;28;20053;-78
2023/07/13 02:51:34;;;;;;;4.72;2.10;;;;;;;;;;5035708;28;20543;-79
2023/07/13 02:54:04;;;;;;;3.47;2.00;;;;;;;;;;5034388;28;20064;-78
2023/07/13 02:56:30;;;;;;;7.80;2.05;;;;;;;;;;5035461;28;20049;-77
2023/07/13 02:58:57;;;;;;;6.72;2.33;;;;;;;;;;5036007;28;20120;-77
2023/07/13 03:01:23;;;;;;;8.52;2.65;;;;;;;;;;5035566;28;20038;-77
2023/07/13 03:03:50;;;;;;;6.22;2.10;;;;;;;;;;5035492;28;20045;-77
2023/07/13 03:06:16;;;;;;;4.88;2.53;;;;;;;;;;5035274;28;20037;-78
2023/07/13 03:08:43;;;;;;;6.05;2.60;;;;;;;;;;5035398;28;20091;-78
2023/07/13 03:11:11;;;;;;;3.85;2.28;;;;;;;;;;5034984;28;20480;-77
2023/07/13 03:13:38;;;;;;;7.65;2.42;;;;;;;;;;5033479;28;20497;-77
2023/07/13 03:16:05;;;;;;;12.30;2.72;;;;;;;;;;5034855;28;20125;-77
2023/07/13 03:18:31;;;;;;;6.82;2.38;;;;;;;;;;5035357;28;20064;-77
2023/07/13 03:20:57;;;;;;;6.45;2.30;;;;;;;;;;5034916;28;20042;-77
2023/07/13 03:23:24;;;;;;;8.07;2.45;;;;;;;;;;5035039;28;20377;-77
2023/07/13 03:25:51;;;;;;;7.35;2.42;;;;;;;;;;5033279;28;20056;-78
2023/07/13 03:28:17;;;;;;;10.63;2.80;;;;;;;;;;5034326;28;20064;-77
2023/07/13 03:30:43;;;;;;;6.78;2.47;;;;;;;;;;5034910;28;20057;-77
2023/07/13 03:33:09;;;;;;;8.07;2.65;;;;;;;;;;5034830;28;20088;-77
2023/07/13 03:35:36;;;;;;;9.60;3.65;;;;;;;;;;5034722;28;20088;-77
2023/07/13 03:38:02;;;;;;;6.05;2.83;;;;;;;;;;5034563;28;20451;-78
2023/07/13 03:40:28;;;;;;;5.68;2.72;;;;;;;;;;5034649;28;20060;-77
2023/07/13 03:42:54;;;;;;;6.07;2.60;;;;;;;;;;5034895;28;20392;-77
2023/07/13 03:45:20;;;;;;;10.10;3.20;;;;;;;;;;5035349;28;20045;-78
2023/07/13 03:47:47;;;;;;;8.93;2.92;;;;;;;;;;5035155;28;20092;-77
2023/07/13 03:50:13;;;;;;;9.05;3.13;;;;;;;;;;5033395;28;20052;-77
2023/07/13 03:52:39;;;;;;;7.30;2.88;;;;;;;;;;5034389;28;20053;-77
2023/07/13 03:55:06;;;;;;;5.30;3.13;;;;;;;;;;5034849;28;20098;-77
2023/07/13 03:57:32;;;;;;;7.20;2.92;;;;;;;;;;5034760;28;20394;-77
2023/07/13 03:59:58;;;;;;;7.88;3.25;;;;;;;;;;5034762;28;20500;-77
2023/07/13 04:02:24;;;;;;;10.63;3.45;;;;;;;;;;5039336;28;20052;-77
2023/07/13 04:04:50;;;;;;;7.75;3.50;;;;;;;;;;5038879;28;20046;-77
2023/07/13 04:07:16;;;;;;;8.57;3.55;;;;;;;;;;5038931;28;20053;-77
2023/07/13 04:09:42;;;;;;;8.02;3.40;;;;;;;;;;5035167;28;20053;-77
2023/07/13 04:12:09;;;;;;;12.02;4.13;;;;;;;;;;5034149;28;20132;-77
2023/07/13 04:14:35;;;;;;;6.00;3.22;;;;;;;;;;5034686;28;20476;-77
2023/07/13 04:17:01;;;;;;;11.65;3.50;;;;;;;;;;5033897;28;20092;-77
2023/07/13 04:19:27;;;;;;;9.10;3.47;;;;;;;;;;5034229;28;20045;-77
2023/07/13 04:21:53;;;;;;;10.43;4.32;;;;;;;;;;5034327;28;20045;-77
2023/07/13 04:24:19;;;;;;;7.68;3.85;;;;;;;;;;5033899;28;20049;-77
2023/07/13 04:26:46;;;;;;;6.45;3.55;;;;;;;;;;5033936;28;20136;-77
2023/07/13 04:29:12;;;;;;;7.13;3.40;;;;;;;;;;5033392;28;20106;-77
2023/07/13 04:31:38;;;;;;;7.68;3.58;;;;;;;;;;5032338;28;20061;-77
2023/07/13 04:34:04;;;;;;;9.15;3.78;;;;;;;;;;5033723;28;20085;-77
2023/07/13 04:36:30;;;;;;;8.02;3.80;;;;;;;;;;5033659;28;20080;-77
2023/07/13 04:38:56;;;;;;;8.77;3.70;;;;;;;;;;5032811;28;20130;-77
2023/07/13 04:41:23;;;;;;;7.75;3.72;;;;;;;;;;5032860;28;20451;-78
2023/07/13 04:43:49;;;;;;;11.13;3.88;;;;;;;;;;5033667;28;20045;-77
2023/07/13 04:46:18;;;;;;;10.05;3.70;;;;;;;;;;5033520;28;20167;-77
2023/07/13 04:48:44;;;;;;;5.68;3.58;;;;;;;;;;5033790;28;20053;-77
2023/07/13 04:51:10;;;;;;;8.27;3.75;;;;;;;;;;5033493;28;20091;-77
2023/07/13 04:53:36;;;;;;;10.68;3.97;;;;;;;;;;5033796;28;20057;-78
2023/07/13 04:56:03;;;;;;;11.75;3.60;;;;;;;;;;5033726;28;20060;-78
2023/07/13 04:58:29;;;;;;;12.82;3.88;;;;;;;;;;5033852;28;20045;-78
2023/07/13 05:01:00;;;;;;;7.00;3.42;;;;;;;;;;5033328;28;20041;-77
2023/07/13 05:03:26;;;;;;;6.65;3.28;;;;;;;;;;5033726;28;20077;-77
2023/07/13 05:05:56;;;;;;;8.30;3.22;;;;;;;;;;5033448;28;20095;-78
2023/07/13 05:08:22;;;;;;;6.75;3.22;;;;;;;;;;5034289;28;20052;-77
2023/07/13 05:10:48;;;;;;;11.52;3.55;;;;;;;;;;5033456;28;20045;-78
2023/07/13 05:13:15;;;;;;;7.82;3.05;;;;;;;;;;5033926;28;20061;-77
2023/07/13 05:15:41;;;;;;;7.32;2.88;;;;;;;;;;5028315;28;20038;-78
2023/07/13 05:18:07;;;;;;;8.25;3.13;;;;;;;;;;5014577;28;20038;-78
2023/07/13 05:20:33;;;;;;;7.75;3.35;;;;;;;;;;5014231;28;20038;-78
2023/07/13 05:22:59;;;;;;;11.32;2.97;;;;;;;;;;5015342;28;20057;-78
2023/07/13 05:25:25;;;;;;;7.45;3.17;;;;;;;;;;5015317;28;20088;-78
2023/07/13 05:27:51;;;;;;;4.93;2.60;;;;;;;;;;5015483;28;20060;-78
2023/07/13 05:30:17;;;;;;;5.32;2.80;;;;;;;;;;5014772;28;20352;-78
2023/07/13 05:32:43;;;;;;;4.50;2.65;;;;;;;;;;5015019;28;20497;-78
2023/07/13 05:35:09;;;;;;;8.27;3.28;;;;;;;;;;5015006;28;20054;-79
2023/07/13 05:37:36;;;;;;;6.60;3.03;;;;;;;;;;5015415;28;20038;-78
2023/07/13 05:40:02;;;;;;;5.72;2.58;;;;;;;;;;5015190;28;20472;-79
2023/07/13 05:42:30;;;;;;;4.38;2.55;;;;;;;;;;5013154;28;20054;-79
2023/07/13 05:44:57;;;;;;;7.47;2.40;;;;;;;;;;5014131;28;20050;-79
2023/07/13 05:47:23;;;;;;;6.22;2.42;;;;;;;;;;5015160;28;20057;-79
2023/07/13 05:49:49;;;;;;;7.28;2.53;;;;;;;;;;5014781;28;20045;-79
2023/07/13 05:52:15;;;;;;;7.78;2.60;;;;;;;;;;5013923;28;20151;-78
2023/07/13 05:54:41;;;;;;;6.03;2.33;;;;;;;;;;5016977;28;20143;-79
2023/07/13 05:57:07;;;;;;;6.13;2.70;;;;;;;;;;5016936;28;20184;-79
2023/07/13 05:59:33;;;;;;;6.93;2.85;;;;;;;;;;5019314;28;20053;-79
2023/07/13 06:01:59;;;;;;;4.43;2.50;;;;;;;;;;5019103;28;20041;-79
2023/07/13 06:04:25;;;;;;;5.75;2.50;;;;;;;;;;5018191;28;20046;-78
2023/07/13 06:06:51;;;;;;;5.93;2.60;;;;;;;;;;5017223;28;20038;-78
2023/07/13 06:09:18;;;;;;;6.70;2.85;;;;;;;;;;5017237;28;20068;-78
2023/07/13 06:11:44;;;;;;;4.60;2.60;;;;;;;;;;5017023;28;20060;-78
2023/07/13 06:14:10;;;;;;;5.22;2.30;;;;;;;;;;5017079;28;20497;-78
2023/07/13 06:16:37;;;;;;;4.28;2.47;;;;;;;;;;5017178;28;20073;-78
2023/07/13 06:19:03;;;;;;;3.33;2.00;;;;;;;;;;5017327;28;20046;-78
2023/07/13 06:21:29;;;;;;;6.07;2.42;;;;;;;;;;5018386;28;20048;-78
2023/07/13 06:23:55;;;;;;;7.05;2.30;;;;;;;;;;5019356;28;20046;-78
2023/07/13 06:26:21;;;;;;;4.55;2.50;;;;;;;;;;5019411;28;20050;-78
2023/07/13 06:28:47;;;;;;;4.68;2.10;;;;;;;;;;5019029;28;20058;-78
2023/07/13 06:31:15;;;;;;;5.95;2.58;;;;;;;;;;5019027;28;20053;-78
2023/07/13 06:33:41;;;;;;;7.13;2.45;;;;;;;;;;5019113;28;20080;-78
2023/07/13 06:36:09;;;;;;;3.83;2.42;;;;;;;;;;5018568;28;20045;-78
2023/07/13 06:38:35;;;;;;;4.97;2.53;;;;;;;;;;5019777;28;20046;-78
2023/07/13 06:41:01;;;;;;;5.35;2.38;;;;;;;;;;5017756;28;20046;-78
2023/07/13 06:43:28;;;;;;;6.88;2.28;;;;;;;;;;5019059;28;20073;-78
2023/07/13 06:45:55;;;;;;;4.65;2.00;;;;;;;;;;5019056;28;20050;-78
2023/07/13 06:48:21;;;;;;;2.58;1.77;;;;;;;;;;5021392;28;20042;-78
2023/07/13 06:50:49;;;;;;;3.78;2.05;;;;;;;;;;5019691;28;20050;-78
2023/07/13 06:53:15;;;;;;;3.97;2.10;;;;;;;;;;5019643;28;20065;-78
2023/07/13 06:55:44;;;;;;;5.88;1.90;;;;;;;;;;5019360;28;20122;-78
2023/07/13 06:58:10;;;;;;;4.93;2.15;;;;;;;;;;5019642;28;20080;-78
2023/07/13 07:00:37;;;;;;;4.40;1.92;;;;;;;;;;5019332;28;20041;-78
2023/07/13 07:03:03;;;;;;;3.33;1.95;;;;;;;;;;5018492;28;20077;-78
2023/07/13 07:05:29;;;;;;;3.63;2.10;;;;;;;;;;5019004;28;20412;-79
2023/07/13 07:07:56;;;;;;;3.42;1.77;;;;;;;;;;5017432;28;20053;-78
2023/07/13 07:10:22;;;;;;;6.50;2.15;;;;;;;;;;5017281;28;20095;-79
2023/07/13 07:12:48;;;;;;;4.20;1.70;;;;;;;;;;5018050;28;20128;-79
2023/07/13 07:15:15;;;;;;;3.28;1.90;;;;;;;;;;5020985;28;20061;-79
2023/07/13 07:17:41;;;;;;;3.60;2.00;;;;;;;;;;5038553;28;20041;-79
2023/07/13 07:20:07;;;;;;;3.53;2.30;;;;;;;;;;5037091;28;20041;-79
2023/07/13 07:22:33;;;;;;;4.50;2.03;;;;;;;;;;5039045;28;20052;-79
2023/07/13 07:24:59;;;;;;;5.88;2.08;;;;;;;;;;5039077;28;20044;-79
2023/07/13 07:27:26;;;;;;;4.07;1.90;;;;;;;;;;5038979;28;20111;-79
2023/07/13 07:29:52;;;;;;;3.17;1.90;;;;;;;;;;5039643;28;20042;-79
2023/07/13 07:32:18;;;;;;;4.25;2.10;;;;;;;;;;5038635;28;20037;-79
2023/07/13 07:34:44;;;;;;;4.20;2.00;;;;;;;;;;5039235;28;20064;-79
2023/07/13 07:37:11;;;;;;;2.90;1.90;;;;;;;;;;5039206;28;20048;-79
2023/07/13 07:39:37;;;;;;;2.35;1.90;;;;;;;;;;5039073;28;20066;-79
2023/07/13 07:42:04;;;;;;;3.55;1.80;;;;;;;;;;5038651;28;20071;-79
2023/07/13 07:44:31;;;;;;;4.85;2.17;;;;;;;;;;5038771;28;20041;-79
2023/07/13 07:46:57;;;;;;;4.25;1.90;;;;;;;;;;5038611;28;20129;-79
2023/07/13 07:49:23;;;;;;;5.30;1.92;;;;;;;;;;5040474;28;20518;-79
2023/07/13 07:51:49;;;;;;;4.03;1.88;;;;;;;;;;5044458;28;20400;-79
2023/07/13 07:54:16;;;;;;;4.10;2.08;;;;;;;;;;5045281;28;20065;-79
2023/07/13 07:56:42;;;;;;;4.00;2.10;;;;;;;;;;5042921;28;20042;-79
2023/07/13 07:59:08;;;;;;;3.70;2.10;;;;;;;;;;5042055;28;20041;-79
2023/07/13 08:01:34;;;;;;;3.42;1.77;;;;;;;;;;5040623;28;20041;-79
2023/07/13 08:04:00;;;;;;;6.25;2.20;;;;;;;;;;5040831;28;20045;-79
2023/07/13 08:06:26;;;;;;;3.85;2.15;;;;;;;;;;5041763;28;20110;-79
2023/07/13 08:08:52;;;;;;;6.63;2.95;;;;;;;;;;5044038;28;20045;-79
2023/07/13 08:11:19;;;;;;;4.80;2.28;;;;;;;;;;5041999;28;20495;-79
2023/07/13 08:13:45;;;;;;;5.88;2.17;;;;;;;;;;5040218;28;20045;-79
2023/07/13 08:16:11;;;;;;;3.97;2.33;;;;;;;;;;5039747;28;20102;-79
2023/07/13 08:18:37;;;;;;;3.17;2.05;;;;;;;;;;5042609;28;20052;-79
2023/07/13 08:21:05;;;;;;;2.60;2.03;;;;;;;;;;5042400;28;20073;-79
2023/07/13 08:23:32;;;;;;;7.28;2.80;;;;;;;;;;5040510;28;20053;-79
2023/07/13 08:25:58;;;;;;;4.47;2.00;;;;;;;;;;5040170;28;20399;-79
2023/07/13 08:28:24;;;;;;;4.28;2.10;;;;;;;;;;5041013;28;20049;-79
2023/07/13 08:30:51;;;;;;;4.82;2.28;;;;;;;;;;5040979;28;20129;-79
2023/07/13 08:33:18;;;;;;;3.67;2.40;;;;;;;;;;5040021;28;20054;-79
2023/07/13 08:35:50;;;;;;;4.25;2.28;;;;;;;;;;5039492;28;20176;-79
2023/07/13 08:38:17;;;;;;;6.13;2.55;;;;;;;;;;5039901;28;20503;-79
2023/07/13 08:40:44;;;;;;;4.75;2.17;;;;;;;;;;5039608;28;20195;-79
2023/07/13 08:43:21;;;;;;;4.43;2.00;;;;;;;;;;5039140;28;20507;-79
2023/07/13 08:45:49;;;;;;;4.43;2.05;;;;;;;;;;5038742;28;20485;-79
2023/07/13 08:48:19;;;;;;;3.85;2.20;;;;;;;;;;5038344;28;20084;-79
2023/07/13 08:50:58;;;;;;;4.13;2.13;;;;;;;;;;5039958;28;20050;-79
2023/07/13 08:53:26;;;;;;;4.55;2.47;;;;;;;;;;5039023;28;20045;-79
2023/07/13 08:55:57;;;;;;;4.90;2.30;;;;;;;;;;5037861;28;20149;-79
2023/07/13 08:58:28;;;;;;;2.60;1.65;;;;;;;;;;5038828;28;20408;-79
2023/07/13 09:01:00;;;;;;;2.65;1.70;;;;;;;;;;5038206;28;20386;-79
2023/07/13 09:03:29;;;;;;;5.47;2.47;;;;;;;;;;5037986;28;20057;-79
2023/07/13 09:05:58;;;;;;;3.03;1.90;;;;;;;;;;5037873;28;20056;-79
2023/07/13 09:08:24;;;;;;;3.50;1.80;;;;;;;;;;5038345;28;20037;-79
2023/07/13 09:10:53;;;;;;;4.70;2.15;;;;;;;;;;5038079;28;20056;-79
2023/07/13 09:13:22;;;;;;;3.70;1.90;;;;;;;;;;5038076;28;20049;-79
2023/07/13 09:15:49;;;;;;;4.25;1.70;;;;;;;;;;5037480;28;20450;-79
2023/07/13 09:18:34;;;;;;;3.95;2.00;;;;;;;;;;5038355;28;20041;-79
2023/07/13 09:21:22;;;;;;;5.55;2.25;;;;;;;;;;5037502;28;20042;-79
2023/07/13 09:23:49;;;;;;;3.65;2.13;;;;;;;;;;5037664;28;20045;-79
2023/07/13 09:26:20;;;;;;;4.63;2.42;;;;;;;;;;5037568;28;20075;-79
2023/07/13 09:28:47;;;;;;;3.30;2.03;;;;;;;;;;5037772;28;20057;-79
2023/07/13 09:31:15;;;;;;;4.07;1.63;;;;;;;;;;5038618;28;20092;-79
2023/07/13 09:33:42;;;;;;;2.60;1.52;;;;;;;;;;5038464;28;20129;-79
2023/07/13 09:36:17;;;;;;;3.08;1.80;;;;;;;;;;5038349;28;20172;-79
2023/07/13 09:38:45;;;;;;;2.33;1.80;;;;;;;;;;5039507;28;20060;-79
2023/07/13 09:41:11;;;;;;;3.20;2.03;;;;;;;;;;5038760;28;20128;-79
2023/07/13 09:43:37;;;;;;;3.10;1.73;;;;;;;;;;5039611;28;20056;-79
2023/07/13 09:46:04;;;;;;;5.03;1.70;;;;;;;;;;5039538;28;20054;-79
2023/07/13 09:48:36;;;;;;;3.45;1.67;;;;;;;;;;5040653;28;20080;-79
2023/07/13 09:51:15;;;;;;;2.30;1.50;;;;;;;;;;5040486;28;20088;-79
2023/07/13 09:53:43;;;;;;;3.72;1.90;;;;;;;;;;5039162;28;20067;-79
2023/07/13 09:56:29;;;;;;;2.85;1.50;;;;;;;;;;5038980;28;20050;-79
2023/07/13 09:58:55;;;;;;;3.03;1.95;;;;;;;;;;5039192;28;20045;-79
2023/07/13 10:01:32;;;;;;;4.30;1.60;;;;;;;;;;5039589;28;20052;-79
2023/07/13 10:03:58;;;;;;;3.53;1.60;;;;;;;;;;5038870;28;20447;-79
2023/07/13 10:06:26;;;;;;;2.63;1.50;;;;;;;;;;5038631;28;20046;-79
2023/07/13 10:08:52;;;;;;;4.10;1.88;;;;;;;;;;5039348;28;20053;-79
2023/07/13 10:11:22;;;;;;;4.47;2.03;;;;;;;;;;5039579;28;20052;-79
2023/07/13 10:13:52;;;;;;;3.90;2.00;;;;;;;;;;5039615;28;20057;-79
2023/07/13 10:16:18;;;;;;;3.42;1.90;;;;;;;;;;5029907;28;20106;-79
2023/07/13 10:18:52;;;;;;;3.47;1.67;;;;;;;;;;5020183;28;20038;-79
2023/07/13 10:21:20;;;;;;;4.43;2.08;;;;;;;;;;5020290;28;20046;-79
2023/07/13 10:23:52;;;;;;;5.57;2.47;;;;;;;;;;5021487;28;20113;-79
2023/07/13 10:26:21;;;;;;;5.07;2.08;;;;;;;;;;5021133;28;20046;-79
2023/07/13 10:28:51;;;;;;;4.20;2.13;;;;;;;;;;5019045;28;20050;-79
2023/07/13 10:31:17;;;;;;;3.50;2.30;;;;;;;;;;5020270;28;20041;-79
2023/07/13 10:33:44;;;;;;;3.88;2.30;;;;;;;;;;5019566;28;20117;-79
2023/07/13 10:36:14;;;;;;;5.40;2.20;;;;;;;;;;5019819;28;20049;-79
2023/07/13 10:38:40;;;;;;;3.47;2.00;;;;;;;;;;5021641;28;20054;-79
2023/07/13 10:41:09;;;;;;;3.70;2.22;;;;;;;;;;5022439;28;20373;-79
2023/07/13 10:43:41;;;;;;;5.45;2.63;;;;;;;;;;5024935;28;20054;-79
2023/07/13 10:46:09;;;;;;;2.95;2.20;;;;;;;;;;5024798;28;20121;-79
2023/07/13 10:48:36;;;;;;;3.63;2.10;;;;;;;;;;5025197;28;20065;-79
2023/07/13 10:51:05;;;;;;;4.72;2.35;;;;;;;;;;5024431;28;20088;-79
2023/07/13 10:53:33;;;;;;;3.28;2.10;;;;;;;;;;5023876;28;20077;-79
2023/07/13 10:56:00;;;;;;;3.22;2.33;;;;;;;;;;5023629;28;20052;-80
2023/07/13 10:58:33;;;;;;;6.75;2.83;;;;;;;;;;5025418;28;20366;-80
2023/07/13 11:01:12;;;;;;;4.60;2.22;;;;;;;;;;5024596;28;20052;-79
2023/07/13 11:03:46;;;;;;;3.95;2.00;;;;;;;;;;5023379;28;20056;-79
2023/07/13 11:06:33;;;;;;;6.03;2.53;;;;;;;;;;5023917;28;20042;-79
2023/07/13 11:09:04;;;;;;;4.80;2.22;;;;;;;;;;5024085;28;20470;-79
2023/07/13 11:11:31;;;;;;;3.28;2.17;;;;;;;;;;5021856;28;20089;-79
2023/07/13 11:14:05;;;;;;;3.92;2.30;;;;;;;;;;5022761;28;20053;-79
2023/07/13 11:16:45;;;;;;;6.15;2.45;;;;;;;;;;5022537;28;20476;-79
2023/07/13 11:19:11;;;;;;;4.70;2.40;;;;;;;;;;5022651;28;20041;-79
2023/07/13 11:21:57;;;;;;;6.55;2.90;;;;;;;;;;5022466;28;20057;-79
2023/07/13 11:24:23;;;;;;;3.70;2.17;;;;;;;;;;5021736;28;20046;-79
2023/07/13 11:26:53;;;;;;;3.72;2.13;;;;;;;;;;5020385;28;20045;-80
2023/07/13 11:29:25;;;;;;;4.72;2.63;;;;;;;;;;5020454;28;20054;-79
2023/07/13 11:31:55;;;;;;;6.22;2.30;;;;;;;;;;5033214;28;20103;-80
2023/07/13 11:34:28;;;;;;;5.63;2.30;;;;;;;;;;5034550;28;20041;-80
2023/07/13 11:36:54;;;;;;;4.55;2.75;;;;;;;;;;5032864;28;20102;-80
2023/07/13 11:39:24;;;;;;;7.00;3.10;;;;;;;;;;5032047;28;20049;-81
2023/07/13 11:41:52;;;;;;;6.60;2.90;;;;;;;;;;5045383;28;20091;-80
2023/07/13 11:44:19;;;;;;;4.43;2.40;;;;;;;;;;5043743;28;20404;-80
2023/07/13 11:46:51;;;;;;;5.57;2.60;;;;;;;;;;5042371;28;20046;-80
2023/07/13 11:49:17;;;;;;;6.75;2.47;;;;;;;;;;5040556;28;20054;-79
2023/07/13 11:51:45;;;;;;;5.00;2.60;;;;;;;;;;5040932;28;20041;-79
2023/07/13 11:54:29;;;;;;;4.68;2.60;;;;;;;;;;5033963;28;20125;-79
2023/07/13 11:57:13;;;;;;;5.18;2.38;;;;;;;;;;5031052;28;20085;-81
2023/07/13 11:59:40;;;;;;;4.10;2.25;;;;;;;;;;5026122;28;20178;-78
2023/07/13 12:02:15;;;;;;;4.25;2.35;;;;;;;;;;5024912;28;20444;-78
2023/07/13 12:04:43;;;;;;;5.65;2.22;;;;;;;;;;5025486;28;20107;-79
2023/07/13 12:07:16;;;;;;;4.78;2.10;;;;;;;;;;5038579;28;20056;-79
2023/07/13 12:09:42;;;;;;;6.50;2.20;;;;;;;;;;5038660;28;20048;-82
2023/07/13 12:12:19;;;;;;;3.75;2.20;;;;;;;;;;5044363;28;20041;-80
2023/07/13 12:14:45;;;;;;;3.70;2.28;;;;;;;;;;5043156;28;20048;-81
2023/07/13 12:17:16;;;;;;;4.40;2.50;;;;;;;;;;5041009;28;20052;-80
2023/07/13 12:19:42;;;;;;;4.97;2.10;;;;;;;;;;5037450;28;20045;-82
2023/07/13 12:22:09;;;;;;;6.15;2.60;;;;;;;;;;5038898;28;20092;-79
2023/07/13 12:24:36;;;;;;;4.90;2.42;;;;;;;;;;5035810;28;20047;-78
2023/07/13 12:27:03;;;;;;;7.28;2.65;;;;;;;;;;5035040;28;20492;-79
2023/07/13 12:29:30;;;;;;;6.90;2.40;;;;;;;;;;5037234;28;20041;-79
2023/07/13 12:31:56;;;;;;;3.92;2.30;;;;;;;;;;5024251;28;20119;-79
2023/07/13 12:34:24;;;;;;;6.63;2.70;;;;;;;;;;5033490;28;20045;-80
2023/07/13 12:36:50;;;;;;;10.95;2.60;;;;;;;;;;5025218;28;20069;-79
2023/07/13 12:39:19;;;;;;;7.68;2.60;;;;;;;;;;5034903;28;20055;-79
2023/07/13 12:41:46;;;;;;;4.85;2.95;;;;;;;;;;5034535;28;20052;-79
2023/07/13 12:44:13;;;;;;;3.78;2.40;;;;;;;;;;5030310;28;20117;-79
2023/07/13 12:46:39;;;;;;;6.75;2.72;;;;;;;;;;5033300;28;20045;-78
2023/07/13 12:49:09;;;;;;;7.20;2.85;;;;;;;;;;5014730;28;20552;-79
2023/07/13 12:51:38;;;;;;;8.30;3.05;;;;;;;;;;5015659;28;20046;-78
2023/07/13 12:54:16;;;;;;;6.35;2.60;;;;;;;;;;5033269;28;20507;-78
2023/07/13 12:56:42;;;;;;;4.45;2.28;;;;;;;;;;5033108;28;20095;-80
2023/07/13 12:59:13;;;;;;;4.55;2.40;;;;;;;;;;5029639;28;20045;-79
2023/07/13 13:01:39;;;;;;;4.60;2.60;;;;;;;;;;5022746;28;20462;-79
2023/07/13 13:04:06;;;;;;;5.28;2.50;;;;;;;;;;5033855;28;20077;-78
2023/07/13 13:06:32;;;;;;;6.78;2.63;;;;;;;;;;5033605;28;20087;-78
2023/07/13 13:08:59;;;;;;;6.80;2.83;;;;;;;;;;5033385;28;20045;-79
2023/07/13 13:11:27;;;;;;;6.20;3.20;;;;;;;;;;5033313;28;20053;-77
2023/07/13 13:13:53;;;;;;;5.88;2.97;;;;;;;;;;5033686;28;20053;-79
2023/07/13 13:16:34;;;;;;;10.25;3.00;;;;;;;;;;5033618;28;20073;-78
2023/07/13 13:19:09;;;;;;;4.63;3.00;;;;;;;;;;5033439;28;20045;-78
2023/07/13 13:21:36;;;;;;;3.97;2.83;;;;;;;;;;5033322;28;20083;-78
2023/07/13 13:24:02;;;;;;;7.80;2.90;;;;;;;;;;5033339;28;20041;-80
2023/07/13 13:26:28;;;;;;;7.10;3.15;;;;;;;;;;5033565;28;20119;-76
2023/07/13 13:28:54;;;;;;;6.07;2.80;;;;;;;;;;5032909;28;20100;-75
2023/07/13 13:31:20;;;;;;;7.18;2.92;;;;;;;;;;5033205;28;20056;-75
2023/07/13 13:33:47;;;;;;;4.93;2.70;;;;;;;;;;5033080;28;20454;-75
2023/07/13 13:36:18;;;;;;;5.75;2.70;;;;;;;;;;5033058;28;20045;-76
2023/07/13 13:38:45;;;;;;;5.90;2.90;;;;;;;;;;5033271;28;20088;-76
2023/07/13 13:41:12;;;;;;;5.45;2.80;;;;;;;;;;5014775;28;20050;-76
2023/07/13 13:43:39;;;;;;;6.95;3.00;;;;;;;;;;5013954;28;20046;-76
2023/07/13 13:46:25;;;;;;;5.65;2.80;;;;;;;;;;5031222;28;20088;-76
2023/07/13 13:48:51;;;;;;;6.82;3.20;;;;;;;;;;5029757;28;20049;-76
2023/07/13 13:51:17;;;;;;;5.70;2.70;;;;;;;;;;5033659;28;20434;-75
2023/07/13 13:53:44;;;;;;;6.30;2.83;;;;;;;;;;5032865;28;20045;-75
2023/07/13 13:56:10;;;;;;;8.32;3.20;;;;;;;;;;5025919;28;20045;-76
2023/07/13 13:58:36;;;;;;;7.20;3.08;;;;;;;;;;5013343;28;20045;-76
2023/07/13 14:01:02;;;;;;;6.82;2.90;;;;;;;;;;5013279;28;20081;-75
2023/07/13 14:03:28;;;;;;;5.97;2.80;;;;;;;;;;5015890;28;20049;-76
2023/07/13 14:05:57;;;;;;;6.40;2.78;;;;;;;;;;5033312;28;20038;-75
2023/07/13 14:08:23;;;;;;;7.13;3.28;;;;;;;;;;5032905;28;20128;-76
2023/07/13 14:10:54;;;;;;;5.85;2.95;;;;;;;;;;5030728;28;20052;-75
2023/07/13 14:13:20;;;;;;;5.75;3.03;;;;;;;;;;5018078;28;20077;-76
2023/07/13 14:15:47;;;;;;;7.88;2.90;;;;;;;;;;5037162;28;20041;-76
2023/07/13 14:18:17;;;;;;;5.15;2.78;;;;;;;;;;5025565;28;20495;-76
2023/07/13 14:20:45;;;;;;;5.65;2.80;;;;;;;;;;5037783;28;20057;-76
2023/07/13 14:23:12;;;;;;;7.88;3.10;;;;;;;;;;5038851;28;20098;-76
2023/07/13 14:25:38;;;;;;;8.02;3.17;;;;;;;;;;5036438;28;20488;-76
2023/07/13 14:28:19;;;;;;;4.82;2.92;;;;;;;;;;5036592;28;20064;-76
2023/07/13 14:30:47;;;;;;;5.90;3.03;;;;;;;;;;5036173;28;20048;-76
2023/07/13 14:33:13;;;;;;;7.95;3.72;;;;;;;;;;5030842;28;20124;-76
2023/07/13 14:35:40;;;;;;;6.53;2.83;;;;;;;;;;5016171;28;20100;-76
2023/07/13 14:38:09;;;;;;;7.63;3.00;;;;;;;;;;5016640;28;20099;-76
2023/07/13 14:40:35;;;;;;;6.15;3.10;;;;;;;;;;5024293;28;20464;-76
2023/07/13 14:43:01;;;;;;;5.50;3.00;;;;;;;;;;5032586;28;20042;-76
2023/07/13 14:45:28;;;;;;;6.03;3.17;;;;;;;;;;5024662;28;20045;-76